Create Custom Reports and Graphics: Custom Report

Siberia 8700'

Squaw Valley

7/8/20 1:30 AM (-07:00)
Updated Every 15 Minutes
Temp 53.0 °F   4.7
RH 13 %   11
Wet Bulb 35.2 °F   0.6
Dew Pt 3.5 °F   9.9
Wind Dir SSE | 163 °
Wind Spd 0.0 mph   0.0
Wind Gust 0.1 mph   0.0
WindChill 53.1 °F   4.8
Daily Min Temp 52.6 °F   4.8
Daily Max Temp 53.3 °F   4.2

Last 24 Hours

Squaw-Siberia 8700'

Hourly Data | America/Los_Angeles
as of 7/8/20 1:33 AM PDT
Date & Time Temp (°F) RH (%) Dew Pt (°F) Wet Bulb (°F) Wind Dir (°) Wind Spd (mph) Wind Gust (mph) WindChill (°F) Daily Min Temp (°F) Daily Max Temp (°F)
7/8/20 - 0100 52.8 18 10.8 36.3 SSE | 163 0.0 0.1 52.9 52.6 53.1
7/8/20 - 0000 52.9 18 10.3 36.2 SSE | 163 0.0 0.1 53.0 46.2 60.9
7/7/20 - 2300 52.5 29 20.9 38.5 SSE | 163 0.0 0.1 51.6 46.2 60.9
7/7/20 - 2200 50.9 40 27.6 39.8 SSE | 163 0.0 0.1 50.7 46.2 60.9
7/7/20 - 2100 51.1 37 25.7 39.3 SSE | 163 0.0 0.1 52.5 46.2 60.9
7/7/20 - 2000 55.0 34 27.2 41.5 SSE | 163 0.0 0.1 55.9 46.2 60.9
7/7/20 - 1900 56.6 34 28.7 42.6 SSE | 163 0.0 0.1 57.4 46.2 60.9
7/7/20 - 1800 59.3 35 31.6 45.0 SSE | 164 0.0 0.1 59.0 46.2 60.9
7/7/20 - 1700 58.0 34 29.9 43.9 SSE | 164 0.0 0.1 58.8 46.2 60.9
7/7/20 - 1600 59.7 30 28.2 44.0 SSE | 164 0.0 0.1 59.1 46.2 60.9
7/7/20 - 1500 60.5 27 26.1 43.7 SSE | 164 0.0 0.1 58.5 46.2 60.5
7/7/20 - 1400 59.8 29 27.7 43.9 SSE | 164 0.0 0.1 58.0 46.2 59.8
7/7/20 - 1300 58.6 25 23.4 42.1 SSE | 164 0.0 0.1 57.7 46.2 59.3
7/7/20 - 1200 56.2 27 22.5 40.7 SSE | 164 0.0 0.1 56.2 46.2 57.5
7/7/20 - 1100 56.2 25 20.7 40.2 SSE | 164 0.0 0.1 53.4 46.2 56.2
7/7/20 - 1000 53.0 27 19.9 38.5 SSE | 164 0.0 0.1 50.8 46.2 53.0
7/7/20 - 0900 49.3 26 15.7 35.5 SSE | 164 0.0 0.1 48.6 46.2 49.5
7/7/20 - 0800 47.6 24 12.3 33.9 SSE | 163 0.0 0.1 47.7 46.2 49.1
7/7/20 - 0700 47.4 23 11.1 33.6 SSE | 164 0.0 0.1 47.3 46.2 49.1
7/7/20 - 0600 46.9 22 9.6 33.0 SSE | 163 0.0 0.1 46.8 46.2 49.1
7/7/20 - 0500 46.9 21 9.2 32.9 SSE | 163 0.0 0.1 46.9 46.2 49.1
7/7/20 - 0400 47.3 20 7.9 32.9 SSE | 163 0.0 0.1 47.5 46.9 49.1
7/7/20 - 0300 47.6 21 9.6 33.4 SSE | 163 0.0 0.1 47.7 46.9 49.1
7/7/20 - 0200 48.0 24 12.9 34.3 SSE | 162 0.0 0.1 48.2 47.4 49.1
7/7/20 - 0100 48.3 25 14.2 34.7 SSE | 163 0.0 0.1 48.6 47.8 49.1
Max 60.5 40 31.6 45.0 - 0.0 0.1 59.1 52.6 60.9
Avg 52.9 27 19.3 38.4 - 0.0 0.1 52.6 - -
Min 46.9 18 7.9 32.9 - 0.0 0.1 46.8 46.2 49.1

Last 30 Days

Squaw-Siberia 8700'

Daily Data | America/Los_Angeles
as of 7/8/20 1:33 AM PDT
Date Daily Max Temp (°F) Max Temp Time Daily Min Temp (°F) Min Temp Time Wind Spd (mph) Daily Max Wind (mph) Max Wind Time Max Wind Dir (°) Wet Bulb (°F) WetB Hrs <28F (hrs)
7/7/20 60.9 1548 46.2 0559 0.0 0.1 1338 SSE | 163 38.3 0.0
7/6/20 63.4 1255 48.4 2315 0.0 0.1 0037 SSE | 162 39.2 0.0
7/5/20 65.0 1456 50.9 0543 0.0 0.1 1904 SSE | 162 41.0 0.0
7/4/20 63.4 1604 47.0 0511 0.0 0.1 2257 SSE | 157 41.2 0.0
7/3/20 60.6 1525 44.6 0553 0.0 0.1 2115 SSE | 159 42.7 0.0
7/2/20 61.2 1515 46.1 0503 0.0 0.1 1932 SSE | 160 43.8 0.0
7/1/20 60.1 1430 43.3 0551 0.0 0.1 1522 SSE | 162 41.4 0.0
6/30/20 57.5 1707 42.3 0455 0.0 0.1 1519 SSE | 160 40.0 0.0
6/29/20 52.2 1635 28.3 0547 0.0 0.1 0125 SSE | 153 34.8 0.0
6/28/20 52.3 0020 36.8 2357 0.0 0.1 2140 SSE | 162 39.6 0.0
6/27/20 65.9 1236 51.3 2331 0.0 0.1 1935 SSE | 161 47.7 0.0
6/26/20 73.3 1527 54.7 0536 0.0 0.1 1707 SSE | 161 50.0 0.0
6/25/20 70.4 1528 53.0 0609 0.0 0.1 0348 SSE | 158 52.4 0.0
6/24/20 71.8 1313 55.5 2146 0.0 0.1 0634 SSE | 162 52.5 0.0
6/23/20 77.5 1410 58.1 0551 0.0 0.1 2125 SSE | 161 51.8 0.0
6/22/20 75.3 1637 52.6 0454 0.0 0.1 2128 SSE | 167 50.8 0.0
6/21/20 67.2 1638 50.8 0001 0.0 0.1 2245 SSE | 159 43.7 0.0
6/20/20 64.9 1434 50.9 0001 0.0 0.1 2044 SSE | 158 44.1 0.0
6/19/20 64.6 1500 45.6 0405 0.0 0.1 0051 SSE | 167 42.2 0.0
6/18/20 58.7 1659 38.2 0535 0.0 0.1 0421 S | 175 36.8 0.0
6/17/20 48.1 1607 27.2 0550 0.0 0.1 0140 SSE | 160 31.2 4.6
6/16/20 44.6 1411 33.0 2347 0.0 0.1 1449 SSE | 163 33.3 2.5
6/15/20 48.6 1142 36.4 2351 0.0 0.1 1601 SSE | 163 40.2 0.0
6/14/20 53.4 1547 35.6 0639 0.0 0.1 2224 SSE | 164 38.4 0.0
6/13/20 37.3 1522 21.0 0753 0.0 0.1 1544 SSE | 162 28.0 12.3
6/12/20 48.5 1338 26.4 2247 0.0 0.1 1313 SSE | 160 34.1 2.1
6/11/20 60.5 1442 45.4 0339 0.0 0.1 1519 SSE | 165 40.7 0.0
6/10/20 61.1 1439 46.2 0028 0.0 0.1 0715 SSE | 161 42.1 0.0
6/9/20 58.5 1546 40.0 0108 0.0 0.1 0656 SSE | 165 39.9 0.0
6/8/20 49.1 1707 20.6 0547 0.0 0.1 1150 SSE | 151 28.9 11.9
Max 77.5 - 58.1 - 0.0 0.1 - - 52.5 12.3
Avg - - - - 0.0 - - - 41.0 -
Min 37.3 - 20.6 - 0.0 0.1 - - 28.0 0.0
Calm: 0.0%
Calm: 0.0%